Overview Statistics Trail Chart Weather Telemetry Raw packets
 

This is the latest recevied weather packets stored in our database for station/object K0QED. If no packets are shown the sender has not sent any weather packets the latest 10 day(s).

<< 28 29 30 31 32 33 34 >>
Time Temp. Humidity Pressure Rain* Wind** Luminosity Snow
1788430086 13.33° C 54% 1023.2 hPa 0 mm - 0 W/m² -
1788429780 13.33° C 52% 1023.4 hPa 0 mm - 0 W/m² -
1788429477 13.33° C 55% 1023.2 hPa 0 mm - 0 W/m² -
1788429172 13.33° C 54% 1023.4 hPa 0 mm - 0 W/m² -
1788428867 13.89° C 53% 1023.5 hPa 0 mm - 0 W/m² -
1788428562 13.89° C 54% 1023.2 hPa 0 mm - 0 W/m² -
1788428257 14.44° C 53% 1023 hPa 0 mm - 0 W/m² -
1788427953 14.44° C 53% 1023.2 hPa 0 mm - 0 W/m² -
1788427652 15° C 53% 1023.1 hPa 0 mm - 0 W/m² -
1788427347 15° C 52% 1023.1 hPa 0 mm - 0 W/m² -
1788427046 15.56° C 51% 1022.7 hPa 0 mm - 0 W/m² -
1788426741 15.56° C 50% 1023.2 hPa 0 mm - 0 W/m² -
1788426436 16.11° C 50% 1023.1 hPa 0 mm - 0 W/m² -
1788426134 16.67° C 48% 1023.1 hPa 0 mm - 0 W/m² -
1788425833 17.22° C 48% 1022.6 hPa 0 mm - 0 W/m² -
1788425529 17.22° C 46% 1022.9 hPa 0 mm - 0 W/m² -
1788425227 17.22° C 46% 1022.6 hPa 0 mm - 0 W/m² -
1788424922 16.67° C 46% 1022.6 hPa 0 mm - 0 W/m² -
1788424618 16.11° C 49% 1022.7 hPa 0 mm - 0 W/m² -
1788424317 15.56° C 51% 1022.7 hPa 0 mm - 0 W/m² -
1788424012 15° C 58% 1023 hPa 0 mm - 0 W/m² -
1788423708 14.44° C 64% 1022.7 hPa 0 mm - 0 W/m² -
1788423402 15° C 63% 1023.1 hPa 0 mm - 0 W/m² -
1788423098 15° C 62% 1022.9 hPa 0 mm - 0 W/m² -
1788422794 15.56° C 60% 1023 hPa 0 mm - 0 W/m² -

* Rain latest hour (hover to see other rain measurements)
** Current wind speed in m/s (hover to see current wind gust speed)